sensor_id;sensor_type;location;lat;lon;timestamp;P1;durP1;ratioP1;P2;durP2;ratioP2
8337;SDS011;4206;48.634;9.516;2023-03-01T00:00:53;20.50;;;11.03;;
8337;SDS011;4206;48.634;9.516;2023-03-01T00:03:21;25.03;;;12.87;;
8337;SDS011;4206;48.634;9.516;2023-03-01T00:05:48;23.37;;;11.83;;
8337;SDS011;4206;48.634;9.516;2023-03-01T00:08:15;19.00;;;10.93;;
8337;SDS011;4206;48.634;9.516;2023-03-01T00:10:42;19.23;;;11.67;;
8337;SDS011;4206;48.634;9.516;2023-03-01T00:13:09;19.03;;;11.97;;
8337;SDS011;4206;48.634;9.516;2023-03-01T00:15:38;20.90;;;11.53;;
8337;SDS011;4206;48.634;9.516;2023-03-01T00:18:06;20.67;;;11.50;;
8337;SDS011;4206;48.634;9.516;2023-03-01T00:20:34;19.40;;;11.20;;
8337;SDS011;4206;48.634;9.516;2023-03-01T00:23:01;21.63;;;11.67;;
8337;SDS011;4206;48.634;9.516;2023-03-01T00:25:28;26.17;;;13.87;;
8337;SDS011;4206;48.634;9.516;2023-03-01T00:27:55;24.97;;;11.60;;
8337;SDS011;4206;48.634;9.516;2023-03-01T00:30:22;22.70;;;11.90;;
8337;SDS011;4206;48.634;9.516;2023-03-01T00:32:49;23.47;;;12.67;;
8337;SDS011;4206;48.634;9.516;2023-03-01T00:35:17;18.83;;;11.40;;
8337;SDS011;4206;48.634;9.516;2023-03-01T00:37:43;21.20;;;11.40;;
8337;SDS011;4206;48.634;9.516;2023-03-01T00:40:11;23.70;;;11.87;;
8337;SDS011;4206;48.634;9.516;2023-03-01T00:42:38;22.17;;;12.57;;
8337;SDS011;4206;48.634;9.516;2023-03-01T00:45:05;23.50;;;11.77;;
8337;SDS011;4206;48.634;9.516;2023-03-01T00:47:34;22.60;;;12.40;;
8337;SDS011;4206;48.634;9.516;2023-03-01T00:50:00;21.70;;;11.30;;
8337;SDS011;4206;48.634;9.516;2023-03-01T00:52:27;21.37;;;13.57;;
8337;SDS011;4206;48.634;9.516;2023-03-01T00:54:54;20.13;;;10.90;;
8337;SDS011;4206;48.634;9.516;2023-03-01T00:57:21;23.17;;;12.47;;
8337;SDS011;4206;48.634;9.516;2023-03-01T00:59:48;21.70;;;12.43;;
8337;SDS011;4206;48.634;9.516;2023-03-01T01:02:15;22.53;;;13.40;;
8337;SDS011;4206;48.634;9.516;2023-03-01T01:04:42;25.13;;;12.67;;
8337;SDS011;4206;48.634;9.516;2023-03-01T01:07:09;21.73;;;12.00;;
8337;SDS011;4206;48.634;9.516;2023-03-01T01:09:36;20.87;;;11.83;;
8337;SDS011;4206;48.634;9.516;2023-03-01T01:12:04;21.87;;;12.03;;
8337;SDS011;4206;48.634;9.516;2023-03-01T01:14:31;20.37;;;11.70;;
8337;SDS011;4206;48.634;9.516;2023-03-01T01:16:58;21.57;;;11.43;;
8337;SDS011;4206;48.634;9.516;2023-03-01T01:19:25;19.90;;;10.97;;
8337;SDS011;4206;48.634;9.516;2023-03-01T01:21:53;25.63;;;13.23;;
8337;SDS011;4206;48.634;9.516;2023-03-01T01:24:19;19.93;;;11.27;;
8337;SDS011;4206;48.634;9.516;2023-03-01T01:26:46;22.43;;;11.60;;
8337;SDS011;4206;48.634;9.516;2023-03-01T01:29:13;21.93;;;11.93;;
8337;SDS011;4206;48.634;9.516;2023-03-01T01:31:41;23.53;;;12.00;;
8337;SDS011;4206;48.634;9.516;2023-03-01T01:34:12;22.10;;;11.73;;
8337;SDS011;4206;48.634;9.516;2023-03-01T01:36:43;21.30;;;11.37;;
8337;SDS011;4206;48.634;9.516;2023-03-01T01:39:10;33.10;;;13.60;;
8337;SDS011;4206;48.634;9.516;2023-03-01T01:41:40;21.70;;;12.53;;
8337;SDS011;4206;48.634;9.516;2023-03-01T01:46:37;21.40;;;11.50;;
8337;SDS011;4206;48.634;9.516;2023-03-01T01:49:12;23.87;;;11.70;;
8337;SDS011;4206;48.634;9.516;2023-03-01T01:51:45;26.80;;;12.83;;
8337;SDS011;4206;48.634;9.516;2023-03-01T01:54:16;20.23;;;11.60;;
8337;SDS011;4206;48.634;9.516;2023-03-01T01:56:48;19.90;;;11.63;;
8337;SDS011;4206;48.634;9.516;2023-03-01T01:59:19;22.10;;;11.40;;
8337;SDS011;4206;48.634;9.516;2023-03-01T02:01:51;19.13;;;11.40;;
8337;SDS011;4206;48.634;9.516;2023-03-01T02:04:19;21.17;;;11.63;;
8337;SDS011;4206;48.634;9.516;2023-03-01T02:06:49;20.83;;;11.30;;
8337;SDS011;4206;48.634;9.516;2023-03-01T02:09:24;23.93;;;10.97;;
8337;SDS011;4206;48.634;9.516;2023-03-01T02:11:53;21.27;;;11.37;;
8337;SDS011;4206;48.634;9.516;2023-03-01T02:14:20;19.20;;;12.27;;
8337;SDS011;4206;48.634;9.516;2023-03-01T02:16:48;20.53;;;10.87;;
8337;SDS011;4206;48.634;9.516;2023-03-01T02:19:19;20.10;;;11.37;;
8337;SDS011;4206;48.634;9.516;2023-03-01T02:27:02;20.37;;;12.17;;
8337;SDS011;4206;48.634;9.516;2023-03-01T02:29:29;21.63;;;12.10;;
8337;SDS011;4206;48.634;9.516;2023-03-01T02:31:57;21.90;;;12.63;;
8337;SDS011;4206;48.634;9.516;2023-03-01T02:34:27;23.60;;;11.97;;
8337;SDS011;4206;48.634;9.516;2023-03-01T02:36:58;21.63;;;12.37;;
8337;SDS011;4206;48.634;9.516;2023-03-01T02:39:28;19.93;;;12.13;;
8337;SDS011;4206;48.634;9.516;2023-03-01T02:42:03;22.83;;;12.90;;
8337;SDS011;4206;48.634;9.516;2023-03-01T02:44:32;20.10;;;11.33;;
8337;SDS011;4206;48.634;9.516;2023-03-01T02:47:00;18.47;;;11.10;;
8337;SDS011;4206;48.634;9.516;2023-03-01T02:49:30;21.30;;;11.87;;
8337;SDS011;4206;48.634;9.516;2023-03-01T02:57:28;22.07;;;11.63;;
8337;SDS011;4206;48.634;9.516;2023-03-01T02:59:58;23.20;;;12.83;;
8337;SDS011;4206;48.634;9.516;2023-03-01T03:02:33;21.30;;;11.60;;
8337;SDS011;4206;48.634;9.516;2023-03-01T03:05:04;20.53;;;11.27;;
8337;SDS011;4206;48.634;9.516;2023-03-01T03:07:35;22.77;;;13.00;;
8337;SDS011;4206;48.634;9.516;2023-03-01T03:10:04;22.87;;;11.80;;
8337;SDS011;4206;48.634;9.516;2023-03-01T03:12:32;17.77;;;11.30;;
8337;SDS011;4206;48.634;9.516;2023-03-01T03:14:59;19.93;;;10.40;;
8337;SDS011;4206;48.634;9.516;2023-03-01T03:17:26;18.63;;;10.93;;
8337;SDS011;4206;48.634;9.516;2023-03-01T03:19:53;18.27;;;10.93;;
8337;SDS011;4206;48.634;9.516;2023-03-01T03:22:20;23.00;;;12.07;;
8337;SDS011;4206;48.634;9.516;2023-03-01T03:24:47;21.93;;;12.43;;
8337;SDS011;4206;48.634;9.516;2023-03-01T03:27:13;23.13;;;12.33;;
8337;SDS011;4206;48.634;9.516;2023-03-01T03:29:40;22.47;;;12.40;;
8337;SDS011;4206;48.634;9.516;2023-03-01T03:32:07;18.10;;;11.00;;
8337;SDS011;4206;48.634;9.516;2023-03-01T03:34:34;24.33;;;14.13;;
8337;SDS011;4206;48.634;9.516;2023-03-01T03:37:01;19.63;;;11.97;;
8337;SDS011;4206;48.634;9.516;2023-03-01T03:39:28;23.83;;;12.70;;
8337;SDS011;4206;48.634;9.516;2023-03-01T03:41:55;26.60;;;12.27;;
8337;SDS011;4206;48.634;9.516;2023-03-01T03:44:21;18.70;;;11.57;;
8337;SDS011;4206;48.634;9.516;2023-03-01T03:46:48;20.70;;;11.97;;
8337;SDS011;4206;48.634;9.516;2023-03-01T03:49:15;23.70;;;11.50;;
8337;SDS011;4206;48.634;9.516;2023-03-01T03:51:42;22.90;;;13.17;;
8337;SDS011;4206;48.634;9.516;2023-03-01T03:54:11;23.00;;;12.90;;
8337;SDS011;4206;48.634;9.516;2023-03-01T03:56:37;20.77;;;11.77;;
8337;SDS011;4206;48.634;9.516;2023-03-01T03:59:06;19.20;;;11.40;;
8337;SDS011;4206;48.634;9.516;2023-03-01T05:02:08;24.43;;;13.70;;
8337;SDS011;4206;48.634;9.516;2023-03-01T05:04:35;23.40;;;13.20;;
8337;SDS011;4206;48.634;9.516;2023-03-01T05:07:02;24.90;;;14.07;;
8337;SDS011;4206;48.634;9.516;2023-03-01T05:09:29;26.90;;;15.07;;
8337;SDS011;4206;48.634;9.516;2023-03-01T05:11:56;28.43;;;15.20;;
8337;SDS011;4206;48.634;9.516;2023-03-01T05:14:23;19.33;;;12.90;;
8337;SDS011;4206;48.634;9.516;2023-03-01T05:16:49;20.40;;;13.10;;
8337;SDS011;4206;48.634;9.516;2023-03-01T05:19:16;26.30;;;14.63;;
8337;SDS011;4206;48.634;9.516;2023-03-01T05:21:48;26.43;;;14.17;;
8337;SDS011;4206;48.634;9.516;2023-03-01T05:24:34;24.17;;;13.20;;
8337;SDS011;4206;48.634;9.516;2023-03-01T05:27:01;23.97;;;13.00;;
8337;SDS011;4206;48.634;9.516;2023-03-01T05:29:30;24.50;;;13.70;;
8337;SDS011;4206;48.634;9.516;2023-03-01T05:31:58;42.30;;;18.93;;
8337;SDS011;4206;48.634;9.516;2023-03-01T05:34:29;32.77;;;16.30;;
8337;SDS011;4206;48.634;9.516;2023-03-01T05:36:58;22.97;;;14.03;;
8337;SDS011;4206;48.634;9.516;2023-03-01T05:39:25;22.47;;;13.43;;
8337;SDS011;4206;48.634;9.516;2023-03-01T05:41:55;22.23;;;14.23;;
8337;SDS011;4206;48.634;9.516;2023-03-01T05:44:24;29.13;;;13.93;;
8337;SDS011;4206;48.634;9.516;2023-03-01T05:46:52;22.40;;;13.57;;
8337;SDS011;4206;48.634;9.516;2023-03-01T05:49:19;28.03;;;14.90;;
8337;SDS011;4206;48.634;9.516;2023-03-01T05:51:50;28.77;;;15.20;;
8337;SDS011;4206;48.634;9.516;2023-03-01T05:54:19;30.37;;;17.43;;
8337;SDS011;4206;48.634;9.516;2023-03-01T05:56:46;62.77;;;29.10;;
8337;SDS011;4206;48.634;9.516;2023-03-01T05:59:13;40.13;;;20.60;;
8337;SDS011;4206;48.634;9.516;2023-03-01T06:01:42;28.77;;;16.83;;
8337;SDS011;4206;48.634;9.516;2023-03-01T06:04:09;28.40;;;15.30;;
8337;SDS011;4206;48.634;9.516;2023-03-01T06:06:36;27.87;;;14.83;;
8337;SDS011;4206;48.634;9.516;2023-03-01T06:09:05;26.30;;;15.47;;
8337;SDS011;4206;48.634;9.516;2023-03-01T06:11:34;26.67;;;14.77;;
8337;SDS011;4206;48.634;9.516;2023-03-01T06:14:05;27.23;;;13.70;;
8337;SDS011;4206;48.634;9.516;2023-03-01T06:16:33;24.73;;;13.63;;
8337;SDS011;4206;48.634;9.516;2023-03-01T06:19:00;29.30;;;15.17;;
8337;SDS011;4206;48.634;9.516;2023-03-01T06:21:27;26.27;;;15.27;;
8337;SDS011;4206;48.634;9.516;2023-03-01T06:23:54;29.23;;;15.07;;
8337;SDS011;4206;48.634;9.516;2023-03-01T06:26:21;28.90;;;15.00;;
8337;SDS011;4206;48.634;9.516;2023-03-01T06:28:48;26.70;;;14.50;;
8337;SDS011;4206;48.634;9.516;2023-03-01T06:31:15;31.93;;;14.30;;
8337;SDS011;4206;48.634;9.516;2023-03-01T06:33:42;29.87;;;15.50;;
8337;SDS011;4206;48.634;9.516;2023-03-01T06:36:10;26.47;;;14.13;;
8337;SDS011;4206;48.634;9.516;2023-03-01T06:38:37;27.90;;;14.77;;
8337;SDS011;4206;48.634;9.516;2023-03-01T06:41:06;30.40;;;15.90;;
8337;SDS011;4206;48.634;9.516;2023-03-01T06:43:33;31.03;;;15.73;;
8337;SDS011;4206;48.634;9.516;2023-03-01T06:46:03;28.80;;;16.00;;
8337;SDS011;4206;48.634;9.516;2023-03-01T06:48:31;43.60;;;24.93;;
8337;SDS011;4206;48.634;9.516;2023-03-01T06:50:59;26.07;;;16.50;;
8337;SDS011;4206;48.634;9.516;2023-03-01T06:53:27;28.93;;;15.37;;
8337;SDS011;4206;48.634;9.516;2023-03-01T06:55:55;25.83;;;14.70;;
8337;SDS011;4206;48.634;9.516;2023-03-01T06:58:23;25.87;;;15.43;;
8337;SDS011;4206;48.634;9.516;2023-03-01T07:00:50;27.63;;;15.00;;
8337;SDS011;4206;48.634;9.516;2023-03-01T07:03:17;26.00;;;15.23;;
8337;SDS011;4206;48.634;9.516;2023-03-01T07:05:48;31.00;;;15.90;;
8337;SDS011;4206;48.634;9.516;2023-03-01T07:08:21;27.47;;;13.73;;
8337;SDS011;4206;48.634;9.516;2023-03-01T07:10:54;26.80;;;15.47;;
8337;SDS011;4206;48.634;9.516;2023-03-01T07:13:22;24.90;;;15.30;;
8337;SDS011;4206;48.634;9.516;2023-03-01T07:15:49;26.67;;;16.00;;
8337;SDS011;4206;48.634;9.516;2023-03-01T07:18:16;26.93;;;15.80;;
8337;SDS011;4206;48.634;9.516;2023-03-01T07:20:43;24.53;;;13.13;;
8337;SDS011;4206;48.634;9.516;2023-03-01T07:23:10;22.90;;;13.50;;
8337;SDS011;4206;48.634;9.516;2023-03-01T07:25:38;27.70;;;14.87;;
8337;SDS011;4206;48.634;9.516;2023-03-01T07:28:04;26.40;;;14.63;;
8337;SDS011;4206;48.634;9.516;2023-03-01T07:30:32;21.90;;;13.87;;
8337;SDS011;4206;48.634;9.516;2023-03-01T07:32:59;27.37;;;15.23;;
8337;SDS011;4206;48.634;9.516;2023-03-01T07:35:26;28.87;;;15.20;;
8337;SDS011;4206;48.634;9.516;2023-03-01T07:37:54;24.63;;;13.00;;
8337;SDS011;4206;48.634;9.516;2023-03-01T07:40:21;25.33;;;14.63;;
8337;SDS011;4206;48.634;9.516;2023-03-01T07:42:49;21.70;;;13.40;;
8337;SDS011;4206;48.634;9.516;2023-03-01T07:45:21;28.20;;;13.90;;
8337;SDS011;4206;48.634;9.516;2023-03-01T07:47:49;20.67;;;13.70;;
8337;SDS011;4206;48.634;9.516;2023-03-01T07:50:18;26.67;;;14.47;;
8337;SDS011;4206;48.634;9.516;2023-03-01T07:52:46;20.30;;;13.17;;
8337;SDS011;4206;48.634;9.516;2023-03-01T07:55:15;20.50;;;13.60;;
8337;SDS011;4206;48.634;9.516;2023-03-01T07:57:42;20.13;;;12.97;;
8337;SDS011;4206;48.634;9.516;2023-03-01T08:00:10;20.10;;;13.47;;
8337;SDS011;4206;48.634;9.516;2023-03-01T08:02:39;19.23;;;12.70;;
8337;SDS011;4206;48.634;9.516;2023-03-01T08:05:09;16.10;;;12.53;;
8337;SDS011;4206;48.634;9.516;2023-03-01T08:07:39;19.40;;;13.50;;
8337;SDS011;4206;48.634;9.516;2023-03-01T08:10:07;17.17;;;13.10;;
8337;SDS011;4206;48.634;9.516;2023-03-01T08:12:34;18.60;;;13.90;;
8337;SDS011;4206;48.634;9.516;2023-03-01T08:15:01;21.47;;;13.10;;
8337;SDS011;4206;48.634;9.516;2023-03-01T08:17:29;20.20;;;14.30;;
8337;SDS011;4206;48.634;9.516;2023-03-01T08:19:56;17.03;;;13.00;;
8337;SDS011;4206;48.634;9.516;2023-03-01T08:22:24;19.33;;;13.73;;
8337;SDS011;4206;48.634;9.516;2023-03-01T08:24:51;19.33;;;13.73;;
8337;SDS011;4206;48.634;9.516;2023-03-01T08:27:18;22.40;;;13.63;;
8337;SDS011;4206;48.634;9.516;2023-03-01T08:29:50;21.17;;;13.47;;
8337;SDS011;4206;48.634;9.516;2023-03-01T08:32:19;22.30;;;13.80;;
8337;SDS011;4206;48.634;9.516;2023-03-01T08:34:47;20.90;;;14.23;;
8337;SDS011;4206;48.634;9.516;2023-03-01T08:37:16;27.67;;;16.87;;
8337;SDS011;4206;48.634;9.516;2023-03-01T08:39:43;20.80;;;13.37;;
8337;SDS011;4206;48.634;9.516;2023-03-01T08:42:11;19.97;;;13.93;;
8337;SDS011;4206;48.634;9.516;2023-03-01T08:44:38;18.20;;;13.20;;
8337;SDS011;4206;48.634;9.516;2023-03-01T08:47:07;18.00;;;12.50;;
8337;SDS011;4206;48.634;9.516;2023-03-01T08:49:34;22.23;;;14.00;;
8337;SDS011;4206;48.634;9.516;2023-03-01T08:52:02;18.27;;;12.73;;
8337;SDS011;4206;48.634;9.516;2023-03-01T08:54:30;20.03;;;13.53;;
8337;SDS011;4206;48.634;9.516;2023-03-01T08:56:57;19.90;;;13.53;;
8337;SDS011;4206;48.634;9.516;2023-03-01T08:59:27;18.80;;;13.20;;
8337;SDS011;4206;48.634;9.516;2023-03-01T09:01:56;17.93;;;13.03;;
8337;SDS011;4206;48.634;9.516;2023-03-01T09:04:23;18.90;;;13.23;;
8337;SDS011;4206;48.634;9.516;2023-03-01T09:06:51;18.33;;;13.40;;
8337;SDS011;4206;48.634;9.516;2023-03-01T09:09:19;19.97;;;13.00;;
8337;SDS011;4206;48.634;9.516;2023-03-01T09:11:46;17.20;;;11.87;;
8337;SDS011;4206;48.634;9.516;2023-03-01T09:14:13;18.97;;;14.30;;
8337;SDS011;4206;48.634;9.516;2023-03-01T09:16:41;17.27;;;12.50;;
8337;SDS011;4206;48.634;9.516;2023-03-01T09:19:08;15.83;;;11.63;;
8337;SDS011;4206;48.634;9.516;2023-03-01T09:21:36;18.33;;;13.50;;
8337;SDS011;4206;48.634;9.516;2023-03-01T09:24:14;16.83;;;12.60;;
8337;SDS011;4206;48.634;9.516;2023-03-01T09:26:42;16.27;;;12.37;;
8337;SDS011;4206;48.634;9.516;2023-03-01T09:29:09;15.93;;;12.67;;
8337;SDS011;4206;48.634;9.516;2023-03-01T09:31:36;16.00;;;12.30;;
8337;SDS011;4206;48.634;9.516;2023-03-01T09:34:04;16.83;;;12.10;;
8337;SDS011;4206;48.634;9.516;2023-03-01T09:36:31;17.73;;;12.33;;
8337;SDS011;4206;48.634;9.516;2023-03-01T09:39:00;18.00;;;13.00;;
8337;SDS011;4206;48.634;9.516;2023-03-01T09:44:31;17.30;;;12.20;;
8337;SDS011;4206;48.634;9.516;2023-03-01T09:47:09;18.20;;;11.57;;
8337;SDS011;4206;48.634;9.516;2023-03-01T09:49:43;15.97;;;11.57;;
8337;SDS011;4206;48.634;9.516;2023-03-01T09:54:56;18.00;;;12.33;;
8337;SDS011;4206;48.634;9.516;2023-03-01T09:57:28;15.67;;;11.60;;
8337;SDS011;4206;48.634;9.516;2023-03-01T10:10:54;25.03;;;12.97;;
8337;SDS011;4206;48.634;9.516;2023-03-01T10:13:27;16.23;;;11.47;;
8337;SDS011;4206;48.634;9.516;2023-03-01T10:16:13;19.17;;;11.37;;
8337;SDS011;4206;48.634;9.516;2023-03-01T10:18:45;19.67;;;11.73;;
8337;SDS011;4206;48.634;9.516;2023-03-01T10:21:19;18.43;;;12.07;;
8337;SDS011;4206;48.634;9.516;2023-03-01T10:23:49;17.53;;;11.70;;
8337;SDS011;4206;48.634;9.516;2023-03-01T10:31:36;24.73;;;12.60;;
8337;SDS011;4206;48.634;9.516;2023-03-01T10:34:10;22.07;;;12.30;;
8337;SDS011;4206;48.634;9.516;2023-03-01T10:36:41;15.67;;;10.97;;
8337;SDS011;4206;48.634;9.516;2023-03-01T10:39:14;16.90;;;11.00;;
8337;SDS011;4206;48.634;9.516;2023-03-01T10:41:51;18.50;;;12.20;;
8337;SDS011;4206;48.634;9.516;2023-03-01T10:52:32;14.70;;;10.90;;
8337;SDS011;4206;48.634;9.516;2023-03-01T10:55:19;17.03;;;12.53;;
8337;SDS011;4206;48.634;9.516;2023-03-01T10:57:50;18.10;;;12.60;;
8337;SDS011;4206;48.634;9.516;2023-03-01T11:00:45;18.40;;;12.47;;
8337;SDS011;4206;48.634;9.516;2023-03-01T11:03:22;15.80;;;12.50;;
8337;SDS011;4206;48.634;9.516;2023-03-01T11:11:06;16.00;;;11.87;;
8337;SDS011;4206;48.634;9.516;2023-03-01T11:18:58;22.70;;;13.30;;
8337;SDS011;4206;48.634;9.516;2023-03-01T11:21:44;15.77;;;11.97;;
8337;SDS011;4206;48.634;9.516;2023-03-01T11:24:15;17.47;;;12.90;;
8337;SDS011;4206;48.634;9.516;2023-03-01T11:26:47;20.63;;;13.33;;
8337;SDS011;4206;48.634;9.516;2023-03-01T11:29:26;18.37;;;12.83;;
8337;SDS011;4206;48.634;9.516;2023-03-01T11:32:13;14.17;;;10.57;;
8337;SDS011;4206;48.634;9.516;2023-03-01T11:34:46;14.60;;;12.13;;
8337;SDS011;4206;48.634;9.516;2023-03-01T11:40:17;19.03;;;12.73;;
8337;SDS011;4206;48.634;9.516;2023-03-01T11:45:47;18.20;;;12.23;;
8337;SDS011;4206;48.634;9.516;2023-03-01T11:51:18;17.00;;;11.30;;
8337;SDS011;4206;48.634;9.516;2023-03-01T11:57:01;15.30;;;11.90;;
8337;SDS011;4206;48.634;9.516;2023-03-01T12:02:27;19.53;;;12.03;;
8337;SDS011;4206;48.634;9.516;2023-03-01T12:05:15;16.50;;;12.10;;
8337;SDS011;4206;48.634;9.516;2023-03-01T12:07:53;17.30;;;11.50;;
8337;SDS011;4206;48.634;9.516;2023-03-01T12:10:28;16.77;;;12.20;;
8337;SDS011;4206;48.634;9.516;2023-03-01T12:27:06;13.63;;;10.13;;
8337;SDS011;4206;48.634;9.516;2023-03-01T12:35:36;15.90;;;11.33;;
8337;SDS011;4206;48.634;9.516;2023-03-01T12:38:32;13.87;;;10.77;;
8337;SDS011;4206;48.634;9.516;2023-03-01T12:41:20;15.27;;;10.70;;
8337;SDS011;4206;48.634;9.516;2023-03-01T12:44:20;14.43;;;10.60;;
8337;SDS011;4206;48.634;9.516;2023-03-01T12:46:52;12.60;;;10.40;;
8337;SDS011;4206;48.634;9.516;2023-03-01T12:49:26;15.00;;;11.93;;
8337;SDS011;4206;48.634;9.516;2023-03-01T12:52:01;14.60;;;12.47;;
8337;SDS011;4206;48.634;9.516;2023-03-01T12:54:36;25.40;;;13.07;;
8337;SDS011;4206;48.634;9.516;2023-03-01T13:02:52;14.63;;;12.07;;
8337;SDS011;4206;48.634;9.516;2023-03-01T13:06:35;13.23;;;11.50;;
8337;SDS011;4206;48.634;9.516;2023-03-01T13:08:31;14.80;;;11.77;;
8337;SDS011;4206;48.634;9.516;2023-03-01T13:11:17;15.33;;;12.23;;
8337;SDS011;4206;48.634;9.516;2023-03-01T13:13:47;17.20;;;13.80;;
8337;SDS011;4206;48.634;9.516;2023-03-01T13:16:20;17.90;;;12.97;;
8337;SDS011;4206;48.634;9.516;2023-03-01T13:21:42;13.87;;;12.40;;
8337;SDS011;4206;48.634;9.516;2023-03-01T13:37:44;18.80;;;12.20;;
8337;SDS011;4206;48.634;9.516;2023-03-01T13:42:45;21.00;;;12.30;;
8337;SDS011;4206;48.634;9.516;2023-03-01T13:45:33;11.47;;;10.13;;
8337;SDS011;4206;48.634;9.516;2023-03-01T13:48:09;13.30;;;11.40;;
8337;SDS011;4206;48.634;9.516;2023-03-01T13:50:39;12.80;;;11.10;;
8337;SDS011;4206;48.634;9.516;2023-03-01T13:53:15;14.07;;;11.90;;
8337;SDS011;4206;48.634;9.516;2023-03-01T13:55:47;16.83;;;12.43;;
8337;SDS011;4206;48.634;9.516;2023-03-01T13:58:25;12.80;;;11.10;;
8337;SDS011;4206;48.634;9.516;2023-03-01T14:00:56;15.60;;;13.20;;
8337;SDS011;4206;48.634;9.516;2023-03-01T14:03:25;13.97;;;12.33;;
8337;SDS011;4206;48.634;9.516;2023-03-01T14:08:42;15.13;;;13.17;;
8337;SDS011;4206;48.634;9.516;2023-03-01T14:19:15;20.30;;;13.47;;
8337;SDS011;4206;48.634;9.516;2023-03-01T14:24:32;19.17;;;13.67;;
8337;SDS011;4206;48.634;9.516;2023-03-01T14:27:04;15.13;;;12.90;;
8337;SDS011;4206;48.634;9.516;2023-03-01T14:29:39;14.30;;;12.57;;
8337;SDS011;4206;48.634;9.516;2023-03-01T14:32:11;29.67;;;14.40;;
8337;SDS011;4206;48.634;9.516;2023-03-01T14:34:47;18.07;;;12.80;;
8337;SDS011;4206;48.634;9.516;2023-03-01T14:37:18;17.03;;;13.30;;
8337;SDS011;4206;48.634;9.516;2023-03-01T14:39:52;17.10;;;12.63;;
8337;SDS011;4206;48.634;9.516;2023-03-01T14:42:22;15.87;;;12.20;;
8337;SDS011;4206;48.634;9.516;2023-03-01T14:44:53;15.53;;;12.60;;
8337;SDS011;4206;48.634;9.516;2023-03-01T14:49:57;19.90;;;14.97;;
8337;SDS011;4206;48.634;9.516;2023-03-01T14:52:31;23.53;;;13.57;;
8337;SDS011;4206;48.634;9.516;2023-03-01T14:55:05;17.23;;;12.80;;
8337;SDS011;4206;48.634;9.516;2023-03-01T14:57:42;18.40;;;12.73;;
8337;SDS011;4206;48.634;9.516;2023-03-01T15:00:16;14.90;;;12.20;;
8337;SDS011;4206;48.634;9.516;2023-03-01T15:02:52;19.37;;;13.87;;
8337;SDS011;4206;48.634;9.516;2023-03-01T15:08:05;15.97;;;12.57;;
8337;SDS011;4206;48.634;9.516;2023-03-01T15:10:34;19.33;;;13.00;;
8337;SDS011;4206;48.634;9.516;2023-03-01T15:13:11;16.70;;;12.20;;
8337;SDS011;4206;48.634;9.516;2023-03-01T15:15:41;19.27;;;11.70;;
8337;SDS011;4206;48.634;9.516;2023-03-01T15:18:15;16.93;;;11.47;;
8337;SDS011;4206;48.634;9.516;2023-03-01T15:20:43;16.50;;;12.60;;
8337;SDS011;4206;48.634;9.516;2023-03-01T15:23:17;15.90;;;11.47;;
8337;SDS011;4206;48.634;9.516;2023-03-01T15:25:49;16.90;;;11.97;;
8337;SDS011;4206;48.634;9.516;2023-03-01T15:28:25;15.37;;;11.80;;
8337;SDS011;4206;48.634;9.516;2023-03-01T15:30:59;17.93;;;12.00;;
8337;SDS011;4206;48.634;9.516;2023-03-01T15:33:32;18.50;;;12.43;;
8337;SDS011;4206;48.634;9.516;2023-03-01T15:36:29;18.17;;;12.80;;
8337;SDS011;4206;48.634;9.516;2023-03-01T15:39:05;20.00;;;11.80;;
8337;SDS011;4206;48.634;9.516;2023-03-01T15:41:52;15.83;;;11.50;;
8337;SDS011;4206;48.634;9.516;2023-03-01T15:44:30;17.47;;;12.17;;
8337;SDS011;4206;48.634;9.516;2023-03-01T15:49:54;16.40;;;12.17;;
8337;SDS011;4206;48.634;9.516;2023-03-01T15:52:24;18.50;;;12.57;;
8337;SDS011;4206;48.634;9.516;2023-03-01T15:55:16;16.43;;;10.60;;
8337;SDS011;4206;48.634;9.516;2023-03-01T15:57:46;17.47;;;11.80;;
8337;SDS011;4206;48.634;9.516;2023-03-01T16:00:14;14.60;;;11.20;;
8337;SDS011;4206;48.634;9.516;2023-03-01T16:02:42;18.93;;;12.33;;
8337;SDS011;4206;48.634;9.516;2023-03-01T16:05:14;18.50;;;12.10;;
8337;SDS011;4206;48.634;9.516;2023-03-01T16:07:59;20.37;;;12.60;;
8337;SDS011;4206;48.634;9.516;2023-03-01T16:10:28;18.33;;;11.33;;
8337;SDS011;4206;48.634;9.516;2023-03-01T16:12:58;17.80;;;11.90;;
8337;SDS011;4206;48.634;9.516;2023-03-01T16:15:27;16.77;;;11.77;;
8337;SDS011;4206;48.634;9.516;2023-03-01T16:17:58;24.23;;;13.23;;
8337;SDS011;4206;48.634;9.516;2023-03-01T16:20:27;22.50;;;11.70;;
8337;SDS011;4206;48.634;9.516;2023-03-01T16:23:00;20.27;;;12.00;;
8337;SDS011;4206;48.634;9.516;2023-03-01T16:25:30;18.07;;;10.20;;
8337;SDS011;4206;48.634;9.516;2023-03-01T16:28:00;18.37;;;12.00;;
8337;SDS011;4206;48.634;9.516;2023-03-01T16:30:31;18.80;;;11.30;;
8337;SDS011;4206;48.634;9.516;2023-03-01T16:33:02;19.67;;;11.43;;
8337;SDS011;4206;48.634;9.516;2023-03-01T16:35:50;15.07;;;10.50;;
8337;SDS011;4206;48.634;9.516;2023-03-01T16:38:21;18.90;;;11.90;;
8337;SDS011;4206;48.634;9.516;2023-03-01T16:40:55;19.63;;;10.43;;
8337;SDS011;4206;48.634;9.516;2023-03-01T16:43:22;19.60;;;11.20;;
8337;SDS011;4206;48.634;9.516;2023-03-01T16:45:49;17.80;;;11.37;;
8337;SDS011;4206;48.634;9.516;2023-03-01T16:48:18;21.90;;;11.50;;
8337;SDS011;4206;48.634;9.516;2023-03-01T16:50:55;15.50;;;10.57;;
8337;SDS011;4206;48.634;9.516;2023-03-01T16:53:28;17.53;;;10.83;;
8337;SDS011;4206;48.634;9.516;2023-03-01T16:55:58;20.73;;;11.67;;
8337;SDS011;4206;48.634;9.516;2023-03-01T16:58:25;18.53;;;10.87;;
8337;SDS011;4206;48.634;9.516;2023-03-01T17:00:55;16.77;;;9.83;;
8337;SDS011;4206;48.634;9.516;2023-03-01T17:03:23;19.80;;;11.53;;
8337;SDS011;4206;48.634;9.516;2023-03-01T17:05:53;16.93;;;9.87;;
8337;SDS011;4206;48.634;9.516;2023-03-01T17:08:21;14.90;;;9.00;;
8337;SDS011;4206;48.634;9.516;2023-03-01T17:10:48;22.27;;;11.20;;
8337;SDS011;4206;48.634;9.516;2023-03-01T17:13:15;19.17;;;11.30;;
8337;SDS011;4206;48.634;9.516;2023-03-01T17:15:42;18.33;;;10.03;;
8337;SDS011;4206;48.634;9.516;2023-03-01T17:18:10;17.13;;;9.83;;
8337;SDS011;4206;48.634;9.516;2023-03-01T17:20:38;16.90;;;10.83;;
8337;SDS011;4206;48.634;9.516;2023-03-01T17:23:09;21.23;;;10.77;;
8337;SDS011;4206;48.634;9.516;2023-03-01T17:25:40;21.83;;;10.70;;
8337;SDS011;4206;48.634;9.516;2023-03-01T17:28:12;17.70;;;10.33;;
8337;SDS011;4206;48.634;9.516;2023-03-01T17:30:41;16.57;;;10.10;;
8337;SDS011;4206;48.634;9.516;2023-03-01T17:33:10;16.10;;;10.53;;
8337;SDS011;4206;48.634;9.516;2023-03-01T17:35:38;17.00;;;11.10;;
8337;SDS011;4206;48.634;9.516;2023-03-01T17:38:06;20.43;;;11.40;;
8337;SDS011;4206;48.634;9.516;2023-03-01T17:40:33;21.07;;;11.67;;
8337;SDS011;4206;48.634;9.516;2023-03-01T17:43:01;18.47;;;11.30;;
8337;SDS011;4206;48.634;9.516;2023-03-01T17:45:29;21.00;;;12.37;;
8337;SDS011;4206;48.634;9.516;2023-03-01T17:47:57;18.97;;;11.97;;
8337;SDS011;4206;48.634;9.516;2023-03-01T17:50:24;23.10;;;11.43;;
8337;SDS011;4206;48.634;9.516;2023-03-01T17:52:51;21.87;;;12.27;;
8337;SDS011;4206;48.634;9.516;2023-03-01T17:55:18;23.43;;;15.33;;
8337;SDS011;4206;48.634;9.516;2023-03-01T17:57:46;26.50;;;15.23;;
8337;SDS011;4206;48.634;9.516;2023-03-01T18:00:14;24.30;;;14.00;;
8337;SDS011;4206;48.634;9.516;2023-03-01T18:02:43;19.50;;;12.57;;
8337;SDS011;4206;48.634;9.516;2023-03-01T18:05:10;20.43;;;12.60;;
8337;SDS011;4206;48.634;9.516;2023-03-01T18:07:37;22.80;;;12.50;;
8337;SDS011;4206;48.634;9.516;2023-03-01T18:10:04;26.63;;;14.43;;
8337;SDS011;4206;48.634;9.516;2023-03-01T18:12:31;24.13;;;14.47;;
8337;SDS011;4206;48.634;9.516;2023-03-01T18:14:59;24.33;;;13.10;;
8337;SDS011;4206;48.634;9.516;2023-03-01T18:17:27;22.17;;;13.10;;
8337;SDS011;4206;48.634;9.516;2023-03-01T18:19:55;22.93;;;13.33;;
8337;SDS011;4206;48.634;9.516;2023-03-01T18:22:24;24.40;;;13.40;;